createdAt,value
2022-10-13T00:01:25.483Z,99917.09
2022-10-13T00:03:54.694Z,99908.25
2022-10-13T00:06:25.577Z,99913.88
2022-10-13T00:08:54.095Z,99922.25
2022-10-13T00:11:26.659Z,99924.22
2022-10-13T00:13:58.434Z,99914.84
2022-10-13T00:16:28.933Z,99921.25
2022-10-13T00:18:57.867Z,99911.25
2022-10-13T00:21:28.608Z,99911.56
2022-10-13T00:23:57.440Z,99912.41
2022-10-13T00:26:28.454Z,99910.72
2022-10-13T00:28:57.275Z,99905.72
2022-10-13T00:31:28.466Z,99909.06
2022-10-13T00:33:58.683Z,99906.81
2022-10-13T00:36:27.118Z,99908.19
2022-10-13T00:38:55.597Z,99905.94
2022-10-13T00:41:24.047Z,99900.09
2022-10-13T00:44:00.253Z,99899.25
2022-10-13T00:46:31.746Z,99903.69
2022-10-13T00:49:04.007Z,99893.44
2022-10-13T00:51:39.295Z,99892.59
2022-10-13T00:54:11.016Z,99901.75
2022-10-13T00:56:42.898Z,99887.31
2022-10-13T00:59:23.097Z,99900.13
2022-10-13T01:01:52.349Z,99887.66
2022-10-13T01:04:23.539Z,99902.94
2022-10-13T01:06:52.340Z,99895.50
2022-10-13T01:09:20.706Z,99900.50
2022-10-13T01:12:03.928Z,99890.28
2022-10-13T01:14:42.614Z,99891.16
2022-10-13T01:17:21.512Z,99885.09
2022-10-13T01:20:32.482Z,99887.91
2022-10-13T01:23:31.557Z,99888.19
2022-10-13T01:26:30.012Z,99870.50
2022-10-13T01:29:27.401Z,99876.31
2022-10-13T01:32:05.544Z,99874.91
2022-10-13T01:34:44.156Z,99880.19
2022-10-13T01:37:21.421Z,99875.97
2022-10-13T01:39:58.482Z,99872.09
2022-10-13T01:42:37.912Z,99869.84
2022-10-13T01:45:08.894Z,99866.78
2022-10-13T01:47:39.907Z,99867.09
2022-10-13T01:50:09.733Z,99864.63
2022-10-13T01:52:40.288Z,99866.84
2022-10-13T01:55:11.479Z,99861.88
2022-10-13T01:57:42.582Z,99859.41
2022-10-13T02:00:14.667Z,99862.19
2022-10-13T02:02:56.834Z,99856.63
2022-10-13T02:05:35.599Z,99853.25
2022-10-13T02:08:10.948Z,99858.53
2022-10-13T02:10:47.609Z,99854.63
2022-10-13T02:13:20.646Z,99862.06
2022-10-13T02:15:54.192Z,99867.56
2022-10-13T02:18:29.306Z,99857.28
2022-10-13T02:20:58.245Z,99853.03
2022-10-13T02:23:27.911Z,99845.50
2022-10-13T02:25:58.625Z,99858.19
2022-10-13T02:28:28.204Z,99854.25
2022-10-13T02:30:57.255Z,99853.06
2022-10-13T02:33:27.139Z,99855.53
2022-10-13T02:35:55.539Z,99853.53
2022-10-13T02:38:23.960Z,99847.94
2022-10-13T02:40:52.336Z,99852.28
2022-10-13T02:43:20.708Z,99853.88
2022-10-13T02:45:49.045Z,99852.19
2022-10-13T02:48:17.360Z,99848.53
2022-10-13T02:50:48.286Z,99848.75
2022-10-13T02:53:16.642Z,99848.69
2022-10-13T02:55:45.035Z,99845.00
2022-10-13T02:58:13.416Z,99842.75
2022-10-13T03:00:41.766Z,99841.03
2022-10-13T03:03:11.062Z,99835.41
2022-10-13T03:05:39.458Z,99847.56
2022-10-13T03:08:09.270Z,99838.66
2022-10-13T03:10:37.646Z,99843.63
2022-10-13T03:13:05.978Z,99844.16
2022-10-13T03:15:34.274Z,99839.94
2022-10-13T03:18:02.610Z,99844.91
2022-10-13T03:20:30.932Z,99840.69
2022-10-13T03:22:59.293Z,99839.56
2022-10-13T03:25:29.505Z,99837.31
2022-10-13T03:27:57.859Z,99837.56
2022-10-13T03:30:26.354Z,99836.41
2022-10-13T03:32:54.934Z,99839.72
2022-10-13T03:35:23.402Z,99835.28
2022-10-13T03:37:51.800Z,99841.34
2022-10-13T03:40:20.124Z,99836.31
2022-10-13T03:42:49.842Z,99838.78
2022-10-13T03:45:18.446Z,99840.13
2022-10-13T03:47:46.845Z,99840.66
2022-10-13T03:50:15.544Z,99836.53
2022-10-13T03:52:43.894Z,99840.44
2022-10-13T03:55:12.251Z,99830.44
2022-10-13T03:57:40.588Z,99843.50
2022-10-13T04:00:12.751Z,99836.31
2022-10-13T04:02:41.172Z,99836.84
2022-10-13T04:05:10.661Z,99837.16
2022-10-13T04:07:39.027Z,99829.63
2022-10-13T04:10:11.416Z,99836.00
2022-10-13T04:12:40.025Z,99842.41
2022-10-13T04:15:11.810Z,99836.00
2022-10-13T04:17:40.184Z,99834.91
2022-10-13T04:20:10.552Z,99836.84
2022-10-13T04:22:39.025Z,99827.16
2022-10-13T04:25:09.599Z,99832.72
2022-10-13T04:27:39.504Z,99830.75
2022-10-13T04:30:13.697Z,99838.56
2022-10-13T04:32:42.110Z,99836.31
2022-10-13T04:35:10.938Z,99829.94
2022-10-13T04:37:44.839Z,99834.38
2022-10-13T04:40:14.219Z,99843.50
2022-10-13T04:42:42.762Z,99841.56
2022-10-13T04:45:13.082Z,99839.63
2022-10-13T04:47:41.504Z,99834.59
2022-10-13T04:50:11.248Z,99839.81
2022-10-13T04:52:39.629Z,99844.28
2022-10-13T04:55:10.325Z,99848.16
2022-10-13T04:57:38.795Z,99841.81
2022-10-13T05:00:09.675Z,99841.50
2022-10-13T05:02:39.847Z,99840.38
2022-10-13T05:05:10.174Z,99837.81
2022-10-13T05:07:38.540Z,99836.38
2022-10-13T05:10:07.674Z,99840.00
2022-10-13T05:12:36.249Z,99841.94
2022-10-13T05:15:05.276Z,99845.84
2022-10-13T05:17:35.543Z,99838.66
2022-10-13T05:20:06.321Z,99841.69
2022-10-13T05:22:34.674Z,99844.47
2022-10-13T05:25:03.055Z,99842.00
2022-10-13T05:27:31.397Z,99838.13
2022-10-13T05:29:59.758Z,99841.41
2022-10-13T05:32:28.128Z,99842.25
2022-10-13T05:34:56.488Z,99844.72
2022-10-13T05:37:26.369Z,99848.03
2022-10-13T05:39:54.756Z,99845.75
2022-10-13T05:42:23.283Z,99846.28
2022-10-13T05:44:52.237Z,99855.97
2022-10-13T05:47:20.604Z,99854.56
2022-10-13T05:49:48.947Z,99858.69
2022-10-13T05:52:17.579Z,99852.81
2022-10-13T05:54:51.705Z,99856.09
2022-10-13T05:57:23.447Z,99849.97
2022-10-13T05:59:57.600Z,99859.97
2022-10-13T06:02:31.554Z,99866.03
2022-10-13T06:04:59.961Z,99860.16
2022-10-13T06:07:28.355Z,99868.50
2022-10-13T06:09:59.257Z,99862.75
2022-10-13T06:12:27.634Z,99866.13
2022-10-13T06:14:56.015Z,99857.56
2022-10-13T06:17:24.449Z,99868.13
2022-10-13T06:19:52.810Z,99862.38
2022-10-13T06:22:22.468Z,99872.66
2022-10-13T06:24:50.949Z,99867.09
2022-10-13T06:27:20.684Z,99870.19
2022-10-13T06:29:49.103Z,99867.09
2022-10-13T06:32:17.726Z,99868.75
2022-10-13T06:34:46.261Z,99866.50
2022-10-13T06:37:14.602Z,99872.59
2022-10-13T06:39:43.019Z,99873.09
2022-10-13T06:42:11.432Z,99872.00
2022-10-13T06:44:41.214Z,99873.63
2022-10-13T06:47:09.979Z,99871.38
2022-10-13T06:49:38.401Z,99863.03
2022-10-13T06:52:07.161Z,99866.31
2022-10-13T06:54:35.595Z,99869.09
2022-10-13T06:57:06.764Z,99865.53
2022-10-13T06:59:35.223Z,99861.31
2022-10-13T07:02:05.054Z,99857.91
2022-10-13T07:04:33.471Z,99863.38
2022-10-13T07:07:01.841Z,99868.56
2022-10-13T07:09:30.394Z,99855.09
2022-10-13T07:11:58.823Z,99863.88
2022-10-13T07:14:27.538Z,99863.72
2022-10-13T07:16:55.954Z,99857.47
2022-10-13T07:19:25.708Z,99863.97
2022-10-13T07:21:54.563Z,99857.19
2022-10-13T07:24:23.211Z,99849.88
2022-10-13T07:26:51.634Z,99850.91
2022-10-13T07:29:20.021Z,99858.66
2022-10-13T07:31:48.595Z,99859.69
2022-10-13T07:34:17.592Z,99857.13
2022-10-13T07:36:47.348Z,99854.03
2022-10-13T07:39:15.752Z,99850.91
2022-10-13T07:41:47.537Z,99843.22
2022-10-13T07:44:19.530Z,99843.41
2022-10-13T07:46:47.947Z,99846.19
2022-10-13T07:49:16.673Z,99855.56
2022-10-13T07:51:46.479Z,99855.28
2022-10-13T07:54:15.564Z,99843.81
2022-10-13T07:56:44.019Z,99841.78
2022-10-13T07:59:12.743Z,99850.53
2022-10-13T08:01:41.693Z,99849.28
2022-10-13T08:04:10.208Z,99853.31
2022-10-13T08:09:13.592Z,99852.47
2022-10-13T08:11:41.989Z,99854.34
2022-10-13T08:14:13.526Z,99843.13
2022-10-13T08:16:48.617Z,99846.59
2022-10-13T08:19:22.722Z,99841.44
2022-10-13T08:21:59.518Z,99845.13
2022-10-13T08:24:30.834Z,99848.31
2022-10-13T08:26:59.259Z,99841.19
2022-10-13T08:29:27.778Z,99843.53
2022-10-13T08:31:56.749Z,99837.84
2022-10-13T08:34:26.881Z,99843.94
2022-10-13T08:36:56.786Z,99834.75
2022-10-13T08:39:26.014Z,99840.31
2022-10-13T08:41:57.927Z,99842.81
2022-10-13T08:47:43.208Z,99848.13
2022-10-13T08:50:16.551Z,99849.97
2022-10-13T08:52:50.814Z,99845.09
2022-10-13T08:55:32.140Z,99842.72
2022-10-13T08:58:04.323Z,99842.47
2022-10-13T09:00:32.856Z,99847.78
2022-10-13T09:03:23.077Z,99835.88
2022-10-13T09:06:06.289Z,99841.38
2022-10-13T09:08:45.167Z,99838.63
2022-10-13T09:11:14.469Z,99840.00
2022-10-13T09:13:44.338Z,99828.34
2022-10-13T09:16:12.878Z,99826.25
2022-10-13T09:18:41.488Z,99828.63
2022-10-13T09:21:20.759Z,99832.75
2022-10-13T09:23:52.215Z,99828.16
2022-10-13T09:26:25.654Z,99826.25
2022-10-13T09:28:55.487Z,99825.94
2022-10-13T09:31:27.465Z,99825.16
2022-10-13T09:34:01.311Z,99816.78
2022-10-13T09:36:31.415Z,99823.06
2022-10-13T09:39:14.459Z,99819.91
2022-10-13T09:41:44.746Z,99817.59
2022-10-13T09:44:18.957Z,99815.81
2022-10-13T09:46:54.748Z,99813.84
2022-10-13T09:49:38.523Z,99818.59
2022-10-13T09:52:16.507Z,99807.56
2022-10-13T09:54:51.209Z,99815.81
2022-10-13T09:57:29.863Z,99811.69
2022-10-13T10:00:14.789Z,99816.94
2022-10-13T10:02:51.894Z,99810.53
2022-10-13T10:05:26.309Z,99816.44
2022-10-13T10:07:57.480Z,99819.44
2022-10-13T10:10:35.326Z,99814.00
2022-10-13T10:13:05.026Z,99816.28
2022-10-13T10:15:46.103Z,99813.34
2022-10-13T10:18:20.027Z,99816.97
2022-10-13T10:21:01.592Z,99815.94
2022-10-13T10:23:43.890Z,99816.28
2022-10-13T10:26:23.697Z,99809.22
2022-10-13T10:29:20.928Z,99812.03
2022-10-13T10:32:16.663Z,99809.53
2022-10-13T10:34:54.397Z,99810.34
2022-10-13T10:37:56.359Z,99808.34
2022-10-13T10:40:37.773Z,99805.88
2022-10-13T10:43:44.693Z,99811.81
2022-10-13T10:46:18.755Z,99804.75
2022-10-13T10:48:50.993Z,99810.00
2022-10-13T10:51:20.646Z,99801.13
2022-10-13T10:54:03.484Z,99796.81
2022-10-13T10:56:36.742Z,99793.88
2022-10-13T10:59:21.542Z,99800.09
2022-10-13T11:02:03.766Z,99793.50
2022-10-13T11:04:43.079Z,99789.53
2022-10-13T11:07:32.598Z,99791.69
2022-10-13T11:10:22.150Z,99791.91
2022-10-13T11:13:22.270Z,99784.34
2022-10-13T11:15:51.202Z,99778.59
2022-10-13T11:19:08.786Z,99778.44
2022-10-13T11:22:27.465Z,99775.81
2022-10-13T11:25:25.023Z,99774.84
2022-10-13T11:27:53.405Z,99769.47
2022-10-13T11:30:43.893Z,99772.59
2022-10-13T11:33:52.411Z,99768.97
2022-10-13T11:36:51.195Z,99762.03
2022-10-13T11:40:12.649Z,99754.00
2022-10-13T11:43:28.451Z,99745.00
2022-10-13T11:46:23.214Z,99741.91
2022-10-13T11:49:28.617Z,99736.72
2022-10-13T11:52:41.927Z,99728.81
2022-10-13T11:55:16.401Z,99729.16
2022-10-13T11:57:45.073Z,99725.38
2022-10-13T12:00:17.650Z,99724.22
2022-10-13T12:02:51.615Z,99715.50
2022-10-13T12:05:25.618Z,99716.13
2022-10-13T12:07:57.972Z,99706.97
2022-10-13T12:10:34.942Z,99698.41
2022-10-13T12:13:05.148Z,99708.75
2022-10-13T12:15:36.496Z,99688.13
2022-10-13T12:18:23.145Z,99685.78
2022-10-13T12:20:55.964Z,99688.00
2022-10-13T12:23:24.656Z,99685.28
2022-10-13T12:25:58.469Z,99679.22
2022-10-13T12:28:30.935Z,99673.72
2022-10-13T12:31:00.948Z,99666.22
2022-10-13T12:33:32.357Z,99667.16
2022-10-13T12:36:15.169Z,99670.88
2022-10-13T12:38:50.610Z,99672.88
2022-10-13T12:41:26.818Z,99669.53
2022-10-13T12:43:56.264Z,99669.22
2022-10-13T12:46:41.180Z,99673.25
2022-10-13T12:49:16.553Z,99670.16
2022-10-13T12:51:49.614Z,99669.50
2022-10-13T12:54:26.494Z,99672.84
2022-10-13T12:57:00.156Z,99669.91
2022-10-13T12:59:31.594Z,99675.03
2022-10-13T13:02:03.165Z,99673.91
2022-10-13T13:04:44.999Z,99672.59
2022-10-13T13:07:33.086Z,99667.19
2022-10-13T13:10:17.816Z,99663.72
2022-10-13T13:12:49.242Z,99663.25
2022-10-13T13:15:37.915Z,99657.03
2022-10-13T13:18:41.642Z,99654.06
2022-10-13T13:21:13.486Z,99658.81
2022-10-13T13:23:42.789Z,99657.47
2022-10-13T13:26:17.222Z,99650.38
2022-10-13T13:28:49.818Z,99654.81
2022-10-13T13:31:20.884Z,99653.19
2022-10-13T13:33:49.515Z,99650.22
2022-10-13T13:36:21.042Z,99651.06
2022-10-13T13:38:50.356Z,99637.53
2022-10-13T13:41:19.165Z,99642.31
2022-10-13T13:43:50.807Z,99642.31
2022-10-13T13:46:23.313Z,99641.81
2022-10-13T13:48:52.119Z,99640.19
2022-10-13T13:51:20.672Z,99635.75
2022-10-13T13:53:49.070Z,99632.63
2022-10-13T13:56:20.160Z,99634.25
2022-10-13T13:58:50.113Z,99637.06
2022-10-13T14:01:18.593Z,99624.25
2022-10-13T14:03:47.083Z,99628.19
2022-10-13T14:06:20.143Z,99627.69
2022-10-13T14:08:48.842Z,99630.84
2022-10-13T14:11:17.389Z,99630.69
2022-10-13T14:13:45.842Z,99628.06
2022-10-13T14:16:18.820Z,99622.97
2022-10-13T14:18:47.223Z,99621.53
2022-10-13T14:21:15.829Z,99625.16
2022-10-13T14:23:47.057Z,99619.59
2022-10-13T14:26:15.789Z,99604.47
2022-10-13T14:28:44.552Z,99605.81
2022-10-13T14:31:13.574Z,99604.50
2022-10-13T14:33:43.467Z,99604.00
2022-10-13T14:36:12.034Z,99599.28
2022-10-13T14:38:40.495Z,99593.66
2022-10-13T14:41:08.869Z,99595.84
2022-10-13T14:43:37.330Z,99600.44
2022-10-13T14:46:07.850Z,99592.53
2022-10-13T14:48:37.931Z,99594.03
2022-10-13T14:51:09.384Z,99593.84
2022-10-13T14:53:39.756Z,99588.91
2022-10-13T14:56:20.497Z,99590.25
2022-10-13T14:58:50.480Z,99593.38
2022-10-13T15:01:19.464Z,99586.78
2022-10-13T15:03:48.267Z,99582.97
2022-10-13T15:06:21.358Z,99588.22
2022-10-13T15:08:50.724Z,99584.44
2022-10-13T15:11:21.805Z,99595.47
2022-10-13T15:13:50.618Z,99586.06
2022-10-13T15:16:21.925Z,99580.84
2022-10-13T15:18:50.770Z,99587.38
2022-10-13T15:21:21.359Z,99580.97
2022-10-13T15:23:49.844Z,99581.13
2022-10-13T15:26:20.821Z,99580.28
2022-10-13T15:28:52.046Z,99578.94
2022-10-13T15:31:22.691Z,99581.47
2022-10-13T15:33:53.514Z,99578.47
2022-10-13T15:36:25.015Z,99572.66
2022-10-13T15:38:53.675Z,99576.56
2022-10-13T15:41:23.704Z,99574.34
2022-10-13T15:43:52.217Z,99573.81
2022-10-13T15:46:24.353Z,99574.91
2022-10-13T15:48:55.331Z,99567.09
2022-10-13T15:51:26.989Z,99564.06
2022-10-13T15:53:56.227Z,99573.50
2022-10-13T15:56:24.916Z,99566.53
2022-10-13T15:58:53.858Z,99573.97
2022-10-13T16:01:22.337Z,99571.13
2022-10-13T16:03:55.606Z,99570.56
2022-10-13T16:06:26.752Z,99568.22
2022-10-13T16:08:55.355Z,99565.31
2022-10-13T16:11:26.204Z,99564.09
2022-10-13T16:13:54.719Z,99572.84
2022-10-13T16:16:23.371Z,99569.66
2022-10-13T16:18:51.985Z,99570.91
2022-10-13T16:21:23.912Z,99574.13
2022-10-13T16:23:54.092Z,99570.59
2022-10-13T16:26:22.632Z,99574.31
2022-10-13T16:28:54.930Z,99568.06
2022-10-13T16:31:23.381Z,99573.19
2022-10-13T16:33:51.770Z,99569.69
2022-10-13T16:36:21.387Z,99568.66
2022-10-13T16:38:49.774Z,99570.72
2022-10-13T16:41:20.041Z,99567.22
2022-10-13T16:43:49.299Z,99573.69
2022-10-13T16:46:20.046Z,99569.88
2022-10-13T16:48:49.078Z,99572.75
2022-10-13T16:51:20.562Z,99580.84
2022-10-13T16:53:50.570Z,99581.75
2022-10-13T16:56:22.312Z,99580.41
2022-10-13T16:58:51.405Z,99583.00
2022-10-13T17:01:19.928Z,99588.03
2022-10-13T17:03:51.239Z,99585.03
2022-10-13T17:06:22.241Z,99586.44
2022-10-13T17:08:50.818Z,99591.81
2022-10-13T17:11:23.292Z,99584.06
2022-10-13T17:13:53.890Z,99581.09
2022-10-13T17:16:22.832Z,99578.09
2022-10-13T17:18:52.001Z,99578.41
2022-10-13T17:21:22.180Z,99582.59
2022-10-13T17:23:51.496Z,99581.25
2022-10-13T17:26:23.383Z,99580.75
2022-10-13T17:28:53.071Z,99582.16
2022-10-13T17:31:24.660Z,99582.47
2022-10-13T17:33:54.868Z,99585.53
2022-10-13T17:36:26.985Z,99582.25
2022-10-13T17:38:58.318Z,99580.63
2022-10-13T17:41:30.506Z,99587.59
2022-10-13T17:44:01.048Z,99584.31
2022-10-13T17:46:38.241Z,99575.44
2022-10-13T17:49:11.094Z,99581.28
2022-10-13T17:51:43.451Z,99582.44
2022-10-13T17:54:16.873Z,99577.47
2022-10-13T17:56:49.760Z,99578.06
2022-10-13T17:59:20.464Z,99576.13
2022-10-13T18:01:49.136Z,99574.47
2022-10-13T18:04:20.976Z,99567.56
2022-10-13T18:06:50.923Z,99577.03
2022-10-13T18:09:24.511Z,99563.75
2022-10-13T18:11:56.543Z,99566.00
2022-10-13T18:14:27.088Z,99568.47
2022-10-13T18:16:56.820Z,99564.06
2022-10-13T18:19:27.875Z,99569.63
2022-10-13T18:21:58.364Z,99569.09
2022-10-13T18:24:27.617Z,99572.97
2022-10-13T18:26:58.836Z,99572.16
2022-10-13T18:29:28.818Z,99568.56
2022-10-13T18:31:59.737Z,99573.28
2022-10-13T18:34:30.988Z,99568.84
2022-10-13T18:37:02.405Z,99581.09
2022-10-13T18:39:34.688Z,99580.56
2022-10-13T18:42:09.282Z,99580.34
2022-10-13T18:44:38.892Z,99575.94
2022-10-13T18:47:09.521Z,99579.25
2022-10-13T18:49:39.522Z,99579.56
2022-10-13T18:52:12.280Z,99581.78
2022-10-13T18:54:42.721Z,99582.09
2022-10-13T18:57:14.642Z,99577.97
2022-10-13T18:59:46.236Z,99578.28
2022-10-13T19:02:16.977Z,99582.50
2022-10-13T19:04:46.320Z,99575.00
2022-10-13T19:07:14.921Z,99575.00
2022-10-13T19:09:44.351Z,99569.44
2022-10-13T19:12:14.951Z,99570.56
2022-10-13T19:14:45.931Z,99574.69
2022-10-13T19:17:15.156Z,99572.44
2022-10-13T19:19:46.065Z,99573.25
2022-10-13T19:22:15.550Z,99576.56
2022-10-13T19:24:47.375Z,99582.63
2022-10-13T19:27:20.850Z,99575.44
2022-10-13T19:29:55.364Z,99569.06
2022-10-13T19:32:26.246Z,99569.91
2022-10-13T19:34:57.083Z,99570.69
2022-10-13T19:37:28.679Z,99579.03
2022-10-13T19:39:59.822Z,99568.75
2022-10-13T19:42:31.132Z,99571.53
2022-10-13T19:45:02.731Z,99570.41
2022-10-13T19:47:33.152Z,99558.19
2022-10-13T19:50:03.356Z,99563.72
2022-10-13T19:52:34.892Z,99560.69
2022-10-13T19:55:07.121Z,99556.75
2022-10-13T19:57:38.549Z,99546.22
2022-10-13T20:00:10.270Z,99546.72
2022-10-13T20:02:39.540Z,99541.72
2022-10-13T20:05:09.853Z,99548.91
2022-10-13T20:07:38.718Z,99546.13
2022-10-13T20:10:08.845Z,99548.41
2022-10-13T20:12:39.290Z,99546.72
2022-10-13T20:15:08.706Z,99557.31
2022-10-13T20:17:37.740Z,99547.59
2022-10-13T20:20:08.234Z,99555.72
2022-10-13T20:22:37.627Z,99546.88
2022-10-13T20:25:07.957Z,99546.63
2022-10-13T20:27:39.636Z,99550.56
2022-10-13T20:30:10.082Z,99551.66
2022-10-13T20:32:38.732Z,99557.22
2022-10-13T20:35:08.373Z,99551.66
2022-10-13T20:37:36.870Z,99555.28
2022-10-13T20:40:06.647Z,99551.66
2022-10-13T20:42:35.033Z,99549.72
2022-10-13T20:45:05.679Z,99546.44
2022-10-13T20:47:34.098Z,99547.25
2022-10-13T20:50:02.531Z,99551.16
2022-10-13T20:52:30.951Z,99558.63
2022-10-13T20:54:59.354Z,99549.50
2022-10-13T20:57:27.767Z,99547.84
2022-10-13T20:59:56.158Z,99540.66
2022-10-13T21:02:25.912Z,99543.41
2022-10-13T21:04:54.315Z,99548.16
2022-10-13T21:07:23.101Z,99540.94
2022-10-13T21:09:54.007Z,99541.78
2022-10-13T21:12:22.633Z,99535.41
2022-10-13T21:14:51.009Z,99531.53
2022-10-13T21:17:19.687Z,99537.06
2022-10-13T21:19:49.851Z,99531.22
2022-10-13T21:22:18.258Z,99530.38
2022-10-13T21:24:46.586Z,99526.78
2022-10-13T21:27:14.932Z,99522.38
2022-10-13T21:29:43.289Z,99521.53
2022-10-13T21:32:12.008Z,99521.53
2022-10-13T21:34:40.381Z,99517.94
2022-10-13T21:37:10.109Z,99521.03
2022-10-13T21:39:38.733Z,99514.66
2022-10-13T21:42:07.205Z,99518.56
2022-10-13T21:44:35.602Z,99523.59
2022-10-13T21:47:04.026Z,99523.59
2022-10-13T21:49:33.000Z,99531.91
2022-10-13T21:52:01.405Z,99525.22
2022-10-13T21:54:31.130Z,99524.09
2022-10-13T21:56:59.745Z,99520.19
2022-10-13T21:59:28.376Z,99518.25
2022-10-13T22:01:56.714Z,99515.16
2022-10-13T22:04:25.079Z,99514.56
2022-10-13T22:06:53.451Z,99506.78
2022-10-13T22:09:21.832Z,99498.44
2022-10-13T22:11:56.219Z,99499.28
2022-10-13T22:14:25.266Z,99496.81
2022-10-13T22:16:55.335Z,99491.03
2022-10-13T22:19:24.344Z,99491.34
2022-10-13T22:21:52.919Z,99495.84
2022-10-13T22:24:22.931Z,99495.94
2022-10-13T22:26:53.050Z,99494.06
2022-10-13T22:29:23.251Z,99496.91
2022-10-13T22:31:55.900Z,99494.72
2022-10-13T22:34:24.426Z,99494.50
2022-10-13T22:36:54.674Z,99497.03
2022-10-13T22:39:23.483Z,99490.13
2022-10-13T22:41:53.197Z,99496.00
2022-10-13T22:44:21.579Z,99502.63
2022-10-13T22:46:50.147Z,99496.81
2022-10-13T22:49:18.502Z,99494.88
2022-10-13T22:51:46.870Z,99492.63
2022-10-13T22:54:15.251Z,99489.53
2022-10-13T22:56:43.680Z,99486.78
2022-10-13T22:59:14.247Z,99502.28
2022-10-13T23:01:42.670Z,99490.91
2022-10-13T23:04:11.153Z,99494.25
2022-10-13T23:06:39.924Z,99495.41
2022-10-13T23:09:11.786Z,99491.28
2022-10-13T23:11:40.205Z,99488.78
2022-10-13T23:14:08.620Z,99485.50
2022-10-13T23:16:38.369Z,99488.56
2022-10-13T23:19:06.875Z,99485.78
2022-10-13T23:21:35.268Z,99483.34
2022-10-13T23:24:06.287Z,99480.84
2022-10-13T23:26:35.878Z,99473.66
2022-10-13T23:29:05.316Z,99475.59
2022-10-13T23:31:33.759Z,99468.13
2022-10-13T23:34:03.530Z,99478.06
2022-10-13T23:36:33.956Z,99475.31
2022-10-13T23:39:05.525Z,99475.03
2022-10-13T23:41:35.217Z,99473.88
2022-10-13T23:44:03.707Z,99473.59
2022-10-13T23:46:32.512Z,99475.22
2022-10-13T23:49:02.292Z,99476.38
2022-10-13T23:51:30.708Z,99477.19
2022-10-13T23:54:00.098Z,99473.28
2022-10-13T23:56:28.549Z,99478.84
2022-10-13T23:58:56.929Z,99468.88
